Time;durP1;ratioP1;P1;durP2;ratioP2;P2;SDS_P1;SDS_P2;PMS_P1;PMS_P2;Temp;Humidity;BMP_temperature;BMP_pressure;BME280_temperature;BME280_humidity;BME280_pressure;Samples;Min_cycle;Max_cycle;Signal;HPM_P1;HPM_P2
2023/01/14 00:02:24;;;;;;;;;7.75;5.00;;;;;9.30;65.03;101501.78;5021059;28;45427;-57
2023/01/14 00:04:49;;;;;;;;;16.00;11.50;;;;;9.26;64.90;101485.16;5020873;28;45335;-58
2023/01/14 00:07:16;;;;;;;;;10.00;7.50;;;;;9.29;64.83;101485.16;5020949;28;45399;-57
2023/01/14 00:09:42;;;;;;;;;15.25;9.75;;;;;9.33;64.81;101475.56;5020947;28;45316;-57
2023/01/14 00:12:07;;;;;;;;;11.25;7.50;;;;;9.30;64.90;101470.31;5020361;28;45158;-56
2023/01/14 00:14:32;;;;;;;;;10.25;6.75;;;;;9.36;64.74;101467.72;5020721;28;45269;-56
2023/01/14 00:17:00;;;;;;;;;3.75;2.25;;;;;9.36;64.79;101460.72;5020789;28;45474;-56
2023/01/14 00:19:25;;;;;;;;;7.00;7.00;;;;;9.35;65.30;101460.72;5019408;28;45416;-56
2023/01/14 00:21:52;;;;;;;;;17.50;9.75;;;;;9.46;64.97;101466.84;5020645;28;45311;-56
2023/01/14 00:24:19;;;;;;;;;7.75;7.25;;;;;9.49;65.14;101455.50;5020635;28;46145;-56
2023/01/14 00:26:48;;;;;;;;;8.25;6.00;;;;;9.50;64.94;101442.38;5020247;28;45240;-56
2023/01/14 00:29:16;;;;;;;;;8.50;5.00;;;;;9.49;65.07;101445.84;5020355;28;45272;-55
2023/01/14 00:31:43;;;;;;;;;7.00;4.50;;;;;9.50;65.41;101437.13;5020439;28;45385;-57
2023/01/14 00:34:09;;;;;;;;;9.25;5.25;;;;;9.48;65.47;101435.38;5020222;28;46372;-56
2023/01/14 00:36:34;;;;;;;;;7.00;6.50;;;;;9.51;65.69;101424.88;5020557;28;45410;-56
2023/01/14 00:38:59;;;;;;;;;9.00;4.00;;;;;9.53;65.73;101426.63;5020484;28;45245;-56
2023/01/14 00:41:26;;;;;;;;;4.75;4.75;;;;;9.54;65.61;101417.00;5019933;28;45255;-56
2023/01/14 00:43:54;;;;;;;;;7.50;6.50;;;;;9.59;65.51;101420.50;5019106;28;46054;-56
2023/01/14 00:46:22;;;;;;;;;8.00;6.00;;;;;9.60;65.52;101409.16;5020184;28;45393;-56
2023/01/14 00:48:48;;;;;;;;;8.75;5.50;;;;;9.64;65.76;101402.16;5019183;28;45360;-56
2023/01/14 00:51:14;;;;;;;;;8.25;6.00;;;;;9.66;65.72;101395.13;5018738;28;45674;-56
2023/01/14 00:53:40;;;;;;;;;5.25;5.00;;;;;9.67;65.80;101391.63;5020296;28;46107;-56
2023/01/14 00:56:07;;;;;;;;;9.00;8.00;;;;;9.68;65.59;101386.38;5019611;28;45254;-56
2023/01/14 00:58:32;;;;;;;;;6.75;5.00;;;;;9.71;65.85;101383.78;5020253;28;45242;-56
2023/01/14 01:00:58;;;;;;;;;6.00;6.00;;;;;9.72;66.12;101371.50;5019997;28;45222;-56
2023/01/14 01:03:24;;;;;;;;;4.75;4.25;;;;;9.75;65.99;101371.53;5020008;28;46153;-56
2023/01/14 01:05:50;;;;;;;;;7.25;6.75;;;;;9.76;66.06;101370.66;5018919;28;45344;-56
2023/01/14 01:08:18;;;;;;;;;8.25;6.00;;;;;9.76;66.27;101368.03;5020183;28;45317;-56
2023/01/14 01:10:45;;;;;;;;;7.00;6.00;;;;;9.79;66.33;101362.78;5019530;28;45411;-56
2023/01/14 01:13:11;;;;;;;;;9.00;5.00;;;;;9.79;66.38;101364.53;5019730;28;46224;-57
2023/01/14 01:15:38;;;;;;;;;5.25;4.00;;;;;9.79;66.66;101365.41;5019734;28;45221;-57
2023/01/14 01:18:04;;;;;;;;;7.25;6.00;;;;;9.80;66.70;101346.16;5020031;28;45463;-57
2023/01/14 01:20:31;;;;;;;;;5.25;5.00;;;;;9.81;66.64;101347.00;5019682;28;45328;-57
2023/01/14 01:22:56;;;;;;;;;5.25;5.00;;;;;9.78;66.93;101340.00;5019718;28;45408;-57
2023/01/14 01:25:22;;;;;;;;;5.50;4.00;;;;;9.79;66.97;101338.28;5019420;28;45278;-57
2023/01/14 01:27:47;;;;;;;;;4.00;3.00;;;;;9.81;67.17;101336.50;5019878;28;45456;-57
2023/01/14 01:30:13;;;;;;;;;8.25;6.50;;;;;9.84;67.00;101333.91;5019435;28;45321;-57
2023/01/14 01:32:39;;;;;;;;;2.50;2.00;;;;;9.84;67.02;101333.91;5019671;28;46338;-57
2023/01/14 01:35:05;;;;;;;;;5.00;4.25;;;;;9.85;67.43;101331.25;5018124;28;45254;-58
2023/01/14 01:37:30;;;;;;;;;4.25;4.25;;;;;9.84;67.42;101332.13;5019772;28;45361;-57
2023/01/14 01:39:56;;;;;;;;;8.00;7.00;;;;;9.85;67.52;101339.13;5019635;28;45385;-57
2023/01/14 01:42:23;;;;;;;;;6.25;6.25;;;;;9.87;67.70;101340.03;5018930;28;46116;-57
2023/01/14 01:44:48;;;;;;;;;9.75;6.50;;;;;9.88;67.82;101320.75;5019541;28;45185;-57
2023/01/14 01:47:16;;;;;;;;;5.00;5.00;;;;;9.91;67.63;101314.59;5017905;28;45275;-57
2023/01/14 01:49:42;;;;;;;;;7.50;6.00;;;;;9.91;67.73;101335.59;5019365;28;45258;-58
2023/01/14 01:52:40;;;;;;;;;11.25;11.25;;;;;9.95;67.77;101341.72;5019397;28;46167;-60
2023/01/14 01:55:12;;;;;;;;;5.75;5.75;;;;;9.98;67.82;101337.34;4996276;28;45260;-57
2023/01/14 01:57:38;;;;;;;;;6.25;6.25;;;;;9.98;68.09;101329.47;5019462;28;45328;-57
2023/01/14 02:00:10;;;;;;;;;6.75;5.50;;;;;10.03;68.07;101330.34;5019426;28;45314;-57
2023/01/14 02:02:35;;;;;;;;;7.75;4.50;;;;;10.05;67.96;101331.22;5019176;28;45543;-57
2023/01/14 02:05:01;;;;;;;;;5.25;3.75;;;;;10.03;68.19;101314.59;5019414;28;45335;-57
2023/01/14 02:07:26;;;;;;;;;4.50;4.00;;;;;10.05;68.34;101315.47;5019274;28;45356;-58
2023/01/14 02:10:00;;;;;;;;;4.25;4.25;;;;;10.06;68.56;101314.59;5019379;28;45357;-57
2023/01/14 02:12:54;;;;;;;;;5.00;4.00;;;;;10.05;68.62;101302.34;5018689;28;46342;-57
2023/01/14 02:15:45;;;;;;;;;7.00;4.00;;;;;10.10;68.61;101304.94;5017695;28;45443;-57
2023/01/14 02:18:26;;;;;;;;;5.25;4.50;;;;;10.06;68.51;101285.69;5022528;28;45242;-57
2023/01/14 02:21:17;;;;;;;;;4.00;4.00;;;;;10.09;68.80;101279.56;5022401;28;45258;-57
2023/01/14 02:24:04;;;;;;;;;7.50;5.50;;;;;10.10;68.88;101270.81;5022292;28;46190;-57
2023/01/14 02:26:48;;;;;;;;;6.50;5.50;;;;;10.13;69.17;101269.94;5022156;28;45360;-57
2023/01/14 02:29:38;;;;;;;;;6.25;4.75;;;;;10.18;69.13;101262.91;5022457;28;45316;-57
2023/01/14 02:32:18;;;;;;;;;5.75;4.75;;;;;10.16;69.30;101246.25;5037749;28;45740;-56
2023/01/14 02:34:55;;;;;;;;;7.00;2.25;;;;;10.20;69.46;101250.63;5022355;28;46051;-57
2023/01/14 02:37:27;;;;;;;;;3.75;2.25;;;;;10.22;69.37;101243.59;5022334;28;45337;-57
2023/01/14 02:40:20;;;;;;;;;2.50;2.50;;;;;10.25;69.18;101243.59;5022425;28;45247;-57
2023/01/14 02:46:47;;;;;;;;;5.00;4.25;;;;;10.24;69.52;101241.88;5022342;28;45509;-56
2023/01/14 02:49:20;;;;;;;;;3.00;3.00;;;;;10.32;69.94;101237.44;5001107;28;45371;-57
2023/01/14 02:51:47;;;;;;;;;3.75;2.00;;;;;10.27;69.64;101225.22;5022204;28;45348;-57
2023/01/14 02:54:12;;;;;;;;;5.50;2.75;;;;;10.40;69.88;101248.81;5022082;28;45467;-57
2023/01/14 02:56:39;;;;;;;;;3.50;2.00;;;;;10.46;69.94;101247.88;5021533;28;46081;-57
2023/01/14 02:59:10;;;;;;;;;1.75;1.75;;;;;10.55;69.99;101246.97;5022189;28;45199;-57
2023/01/14 03:01:52;;;;;;;;;3.00;2.75;;;;;10.59;69.88;101245.19;5022101;28;45509;-56
2023/01/14 03:04:35;;;;;;;;;2.00;2.00;;;;;10.60;69.95;101237.28;5021917;28;45302;-57
2023/01/14 03:07:25;;;;;;;;;5.50;1.00;;;;;10.57;70.01;101217.16;5020541;28;47257;-57
2023/01/14 03:10:00;;;;;;;;;2.00;1.75;;;;;10.64;69.88;101219.75;5000683;28;45356;-57
2023/01/14 03:12:34;;;;;;;;;1.00;0.00;;;;;10.65;70.20;101218.88;5021750;28;45307;-57
2023/01/14 03:15:26;;;;;;;;;2.00;1.00;;;;;10.70;69.48;101223.22;5021701;28;45472;-57
2023/01/14 03:18:06;;;;;;;;;2.50;2.50;;;;;10.73;69.80;101228.47;5018608;28;45461;-57
2023/01/14 03:20:36;;;;;;;;;7.50;2.75;;;;;10.77;69.74;101217.91;5021595;28;45387;-57
2023/01/14 03:23:06;;;;;;;;;2.50;1.00;;;;;10.77;70.05;101212.66;5021907;28;45322;-57
2023/01/14 03:25:38;;;;;;;;;2.50;0.00;;;;;10.79;70.10;101209.16;5021264;28;45299;-57
2023/01/14 03:28:08;;;;;;;;;2.00;1.00;;;;;10.79;70.11;101196.00;5020714;28;46322;-56
2023/01/14 03:30:39;;;;;;;;;3.00;1.00;;;;;10.82;69.84;101197.72;5021126;28;45300;-57
2023/01/14 03:33:26;;;;;;;;;3.00;2.00;;;;;10.80;69.80;101184.56;5020447;28;45299;-57
2023/01/14 03:35:53;;;;;;;;;0.50;0.50;;;;;10.86;69.77;101175.78;5020949;28;45326;-57
2023/01/14 03:38:29;;;;;;;;;3.00;3.00;;;;;10.87;69.94;101160.00;5021219;28;46338;-57
2023/01/14 03:40:58;;;;;;;;;6.00;4.00;;;;;10.85;69.82;101150.38;5021098;28;45316;-57
2023/01/14 03:43:31;;;;;;;;;2.75;1.00;;;;;10.86;69.92;101138.97;5021163;28;45254;-56
2023/01/14 03:45:57;;;;;;;;;4.00;1.50;;;;;10.91;69.82;101138.94;5021491;28;45265;-57
2023/01/14 03:48:24;;;;;;;;;2.25;1.25;;;;;10.89;69.87;101125.78;5021009;28;46028;-56
2023/01/14 03:51:04;;;;;;;;;5.00;2.75;;;;;10.84;69.39;101128.47;5021557;28;45639;-57
2023/01/14 03:53:49;;;;;;;;;4.50;1.25;;;;;10.85;69.81;101129.34;5021437;28;45345;-57
2023/01/14 03:56:22;;;;;;;;;2.00;2.00;;;;;10.93;70.08;101127.53;5019374;28;45574;-57
2023/01/14 03:58:57;;;;;;;;;5.00;2.00;;;;;10.92;69.31;101112.63;5019992;28;46406;-57
2023/01/14 04:01:45;;;;;;;;;5.75;3.00;;;;;10.90;69.86;101106.50;5019530;28;45412;-56
2023/01/14 04:04:11;;;;;;;;;3.75;2.25;;;;;10.84;69.72;101103.94;5020416;28;45248;-57
2023/01/14 04:06:38;;;;;;;;;3.50;2.50;;;;;10.88;69.58;101092.50;5019825;28;45409;-57
2023/01/14 04:09:08;;;;;;;;;3.25;2.00;;;;;10.85;69.67;101103.91;5020724;28;45263;-57
2023/01/14 04:11:34;;;;;;;;;5.50;2.00;;;;;10.90;69.75;101090.72;5020664;28;45339;-56
2023/01/14 04:16:44;;;;;;;;;3.25;2.00;;;;;10.99;69.78;101084.50;5020880;28;45475;-56
2023/01/14 04:19:09;;;;;;;;;6.00;3.00;;;;;10.95;69.78;101070.50;5019352;28;45286;-57
2023/01/14 04:21:35;;;;;;;;;3.50;2.50;;;;;10.98;69.71;101057.34;5021002;28;45202;-56
2023/01/14 04:24:00;;;;;;;;;4.50;2.25;;;;;10.99;69.64;101064.34;5020833;28;45407;-57
2023/01/14 04:26:27;;;;;;;;;3.00;2.00;;;;;10.91;69.43;101034.63;5020421;28;45407;-56
2023/01/14 04:28:53;;;;;;;;;9.00;3.75;;;;;10.88;69.67;101040.78;5020311;28;47142;-57
2023/01/14 04:31:19;;;;;;;;;7.75;7.00;;;;;10.81;69.78;101018.06;5035867;28;45338;-56
2023/01/14 04:33:44;;;;;;;;;11.67;4.00;;;;;10.85;69.62;101042.56;5020458;28;45220;-56
2023/01/14 04:36:10;;;;;;;;;5.75;4.75;;;;;10.85;69.78;101038.19;5020869;28;45368;-56
2023/01/14 04:38:35;;;;;;;;;6.00;4.00;;;;;10.86;69.52;101013.63;5020351;28;45367;-56
2023/01/14 04:41:00;;;;;;;;;6.50;3.50;;;;;10.85;69.57;101027.66;5019058;28;45325;-56
2023/01/14 04:43:26;;;;;;;;;5.50;2.25;;;;;10.93;69.90;101027.59;5020322;28;45494;-57
2023/01/14 04:45:52;;;;;;;;;4.00;3.00;;;;;11.02;69.85;101024.84;5020622;28;45504;-57
2023/01/14 04:48:19;;;;;;;;;8.50;3.50;;;;;10.97;69.74;101018.78;5020185;28;46294;-56
2023/01/14 04:50:46;;;;;;;;;4.50;4.50;;;;;10.94;69.54;101010.91;5020439;28;45234;-56
2023/01/14 04:53:15;;;;;;;;;3.50;2.00;;;;;10.90;69.75;101011.84;5020287;28;45225;-56
2023/01/14 04:55:43;;;;;;;;;6.00;4.50;;;;;11.00;69.76;101002.97;5019918;28;45265;-56
2023/01/14 04:58:11;;;;;;;;;2.00;2.00;;;;;11.02;69.42;101002.97;5019902;28;46892;-56
2023/01/14 05:00:37;;;;;;;;;5.00;4.00;;;;;10.97;69.88;101003.00;5020136;28;45293;-56
2023/01/14 05:03:04;;;;;;;;;3.75;3.00;;;;;10.97;69.73;100997.75;5020184;28;45256;-56
2023/01/14 05:05:30;;;;;;;;;5.75;3.75;;;;;10.97;69.73;100983.72;5020072;28;45466;-56
2023/01/14 05:07:56;;;;;;;;;6.75;3.00;;;;;10.99;69.37;100969.69;5019914;28;46387;-56
2023/01/14 05:10:21;;;;;;;;;5.75;3.00;;;;;10.98;69.91;100973.19;5019888;28;45419;-56
2023/01/14 05:12:56;;;;;;;;;4.50;2.75;;;;;10.98;69.64;100959.16;5019957;28;45371;-56
2023/01/14 05:15:27;;;;;;;;;3.50;1.75;;;;;10.95;69.74;100961.84;5019885;28;45296;-56
2023/01/14 05:17:53;;;;;;;;;6.00;3.75;;;;;10.97;69.38;100960.94;5019792;28;45231;-56
2023/01/14 05:20:19;;;;;;;;;2.50;2.00;;;;;11.01;69.55;100961.78;5019898;28;45413;-55
2023/01/14 05:22:44;;;;;;;;;3.00;2.25;;;;;11.00;69.41;100966.13;5019894;28;45233;-56
2023/01/14 05:25:13;;;;;;;;;5.50;3.00;;;;;11.02;69.65;100963.50;5019524;28;45387;-56
2023/01/14 05:27:39;;;;;;;;;3.00;2.75;;;;;11.03;69.29;100959.97;5018388;28;47815;-56
2023/01/14 05:30:05;;;;;;;;;4.50;2.75;;;;;10.99;69.43;100942.50;5019466;28;45284;-56
2023/01/14 05:32:30;;;;;;;;;8.00;4.00;;;;;10.99;69.51;100956.53;5020019;28;45187;-56
2023/01/14 05:34:55;;;;;;;;;5.00;2.00;;;;;11.04;69.22;100945.94;5019730;28;45456;-56
2023/01/14 05:37:21;;;;;;;;;8.25;2.50;;;;;10.99;69.35;100930.25;5019704;28;46100;-56
2023/01/14 05:39:46;;;;;;;;;8.00;2.00;;;;;11.01;69.52;100941.59;5019955;28;45391;-56
2023/01/14 05:47:40;;;;;;;;;2.75;1.50;;;;;10.98;69.45;100915.34;5019638;28;45381;-56
2023/01/14 05:50:06;;;;;;;;;1.75;1.50;;;;;10.97;69.25;100889.94;5019379;28;45166;-56
2023/01/14 05:52:32;;;;;;;;;1.25;1.25;;;;;10.99;69.39;100898.69;5021977;28;45309;-56
2023/01/14 05:54:57;;;;;;;;;2.75;1.50;;;;;10.98;69.19;100904.81;5022549;28;45247;-55
2023/01/14 05:57:22;;;;;;;;;4.75;2.00;;;;;10.97;69.44;100883.78;5022865;28;47013;-53
2023/01/14 05:59:48;;;;;;;;;3.75;2.00;;;;;11.02;69.00;100895.13;5021657;28;45339;-56
2023/01/14 06:07:41;;;;;;;;;7.25;2.50;;;;;10.87;69.28;100872.56;5022641;28;45243;-56
2023/01/14 06:10:07;;;;;;;;;4.00;3.00;;;;;10.87;69.24;100881.28;5022628;28;45277;-53
2023/01/14 06:15:16;;;;;;;;;1.00;1.00;;;;;10.92;69.51;100875.09;5022801;28;45158;-54
2023/01/14 06:17:45;;;;;;;;;2.25;1.00;;;;;10.88;68.98;100869.91;5022393;28;45322;-55
2023/01/14 06:20:11;;;;;;;;;5.00;2.25;;;;;10.87;69.08;100870.78;5022659;28;45332;-56
2023/01/14 06:22:37;;;;;;;;;5.75;1.75;;;;;10.84;68.92;100870.84;5021306;28;45441;-56
2023/01/14 06:25:02;;;;;;;;;3.00;2.25;;;;;10.87;69.04;100872.56;5022431;28;45662;-56
2023/01/14 06:27:28;;;;;;;;;7.50;2.00;;;;;10.88;69.08;100866.41;5022363;28;45405;-56
2023/01/14 06:29:54;;;;;;;;;2.75;1.00;;;;;10.88;68.75;100867.25;5022316;28;45408;-56
2023/01/14 06:32:19;;;;;;;;;1.75;1.75;;;;;10.81;69.23;100852.44;5022789;28;45420;-55
2023/01/14 06:34:44;;;;;;;;;5.50;1.50;;;;;10.79;69.08;100850.75;5022611;28;45607;-54
2023/01/14 06:37:10;;;;;;;;;2.75;1.75;;;;;10.79;69.10;100841.13;5022322;28;45157;-55
2023/01/14 06:39:35;;;;;;;;;8.25;2.00;;;;;10.84;69.14;100843.66;5022404;28;45300;-55
2023/01/14 06:42:01;;;;;;;;;0.50;0.50;;;;;10.77;69.18;100823.59;5021953;28;45428;-56
2023/01/14 06:44:27;;;;;;;;;2.00;2.00;;;;;10.70;69.28;100825.44;5022444;28;45376;-56
2023/01/14 06:46:52;;;;;;;;;1.50;1.25;;;;;10.71;69.14;100793.88;5022062;28;46255;-54
2023/01/14 06:49:18;;;;;;;;;4.00;2.00;;;;;10.72;69.28;100800.03;5022222;28;45293;-56
2023/01/14 06:51:43;;;;;;;;;5.50;1.50;;;;;10.76;69.17;100798.22;5022286;28;45420;-54
2023/01/14 06:54:08;;;;;;;;;3.75;1.25;;;;;10.76;69.22;100800.84;5020866;28;45438;-56
2023/01/14 06:56:34;;;;;;;;;4.25;2.75;;;;;10.66;69.40;100798.31;5021237;28;46225;-56
2023/01/14 06:58:59;;;;;;;;;3.50;2.25;;;;;10.68;69.52;100809.69;5022202;28;45226;-54
2023/01/14 07:01:25;;;;;;;;;2.75;1.50;;;;;10.70;69.16;100789.53;5022110;28;45358;-55
2023/01/14 07:03:51;;;;;;;;;4.75;2.25;;;;;10.80;69.22;100794.66;5020867;28;45265;-54
2023/01/14 07:06:16;;;;;;;;;5.50;1.75;;;;;10.78;69.14;100781.53;5021853;28;45506;-55
2023/01/14 07:08:41;;;;;;;;;3.75;2.25;;;;;10.76;69.42;100799.06;5022081;28;45339;-56
2023/01/14 07:11:07;;;;;;;;;5.75;4.00;;;;;10.81;69.11;100794.63;5020245;28;45756;-56
2023/01/14 07:13:33;;;;;;;;;3.25;2.50;;;;;10.80;69.01;100778.88;5022018;28;45272;-57
2023/01/14 07:15:58;;;;;;;;;1.75;1.75;;;;;10.84;69.06;100764.78;5021573;28;45361;-57
2023/01/14 07:18:25;;;;;;;;;5.75;2.00;;;;;10.79;69.29;100761.38;5021999;28;45317;-55
2023/01/14 07:20:51;;;;;;;;;4.00;3.00;;;;;10.76;69.24;100751.75;5021673;28;45254;-55
2023/01/14 07:23:16;;;;;;;;;6.00;3.00;;;;;10.76;69.31;100754.38;5021839;28;45248;-56
2023/01/14 07:25:41;;;;;;;;;1.75;1.75;;;;;10.89;69.18;100752.44;5021350;28;45468;-57
2023/01/14 07:28:07;;;;;;;;;4.25;1.50;;;;;10.82;69.06;100750.81;5021812;28;45278;-56
2023/01/14 07:30:33;;;;;;;;;3.00;2.00;;;;;10.80;69.16;100753.44;5021467;28;45493;-55
2023/01/14 07:32:59;;;;;;;;;3.00;1.00;;;;;10.84;69.30;100760.41;5021851;28;45432;-55
2023/01/14 07:35:26;;;;;;;;;1.00;1.00;;;;;10.87;69.07;100772.66;5021455;28;46202;-54
2023/01/14 07:37:59;;;;;;;;;2.75;2.25;;;;;10.94;68.99;100740.09;5021529;28;45323;-56
2023/01/14 07:40:25;;;;;;;;;4.00;2.25;;;;;10.89;69.20;100732.28;5019870;28;45448;-56
2023/01/14 07:43:00;;;;;;;;;4.25;3.75;;;;;10.96;69.13;100745.34;5021088;28;45365;-56
2023/01/14 07:45:27;;;;;;;;;3.00;3.00;;;;;10.87;69.02;100723.56;5021480;28;46484;-55
2023/01/14 07:47:52;;;;;;;;;2.50;1.00;;;;;10.88;69.25;100741.06;5020167;28;45402;-55
2023/01/14 07:50:20;;;;;;;;;2.50;2.50;;;;;10.88;69.32;100717.41;5021425;28;45461;-55
2023/01/14 07:52:57;;;;;;;;;4.00;1.00;;;;;10.90;69.15;100717.38;5021320;28;45441;-55
2023/01/14 07:55:23;;;;;;;;;3.00;2.00;;;;;10.85;69.17;100746.34;5019445;28;46381;-55
2023/01/14 07:57:50;;;;;;;;;2.00;1.75;;;;;10.85;69.47;100700.81;5020933;28;45247;-55
2023/01/14 08:00:16;;;;;;;;;4.00;2.00;;;;;10.90;69.36;100733.16;5021312;28;45348;-56
2023/01/14 08:02:41;;;;;;;;;2.75;2.75;;;;;10.94;69.39;100712.94;5020936;28;45261;-56
2023/01/14 08:05:07;;;;;;;;;1.00;0.00;;;;;10.89;69.43;100689.34;5021149;28;45518;-55
2023/01/14 08:07:32;;;;;;;;;5.25;3.00;;;;;10.93;69.41;100705.94;5020940;28;45281;-55
2023/01/14 08:09:57;;;;;;;;;0.75;0.00;;;;;10.85;69.41;100712.19;5020975;28;45274;-54
2023/01/14 08:12:23;;;;;;;;;0.25;0.25;;;;;10.87;69.57;100727.94;5020724;28;45281;-53
2023/01/14 08:14:48;;;;;;;;;11.25;4.50;;;;;10.86;69.52;100686.78;5020451;28;46293;-54
2023/01/14 08:17:14;;;;;;;;;5.25;2.00;;;;;10.82;69.79;100711.38;5020794;28;45416;-53
2023/01/14 08:19:39;;;;;;;;;6.50;2.00;;;;;10.84;69.74;100689.44;5021083;28;45277;-54
2023/01/14 08:22:05;;;;;;;;;3.00;0.00;;;;;10.82;69.86;100679.84;5020928;28;45377;-53
2023/01/14 08:24:30;;;;;;;;;1.00;1.00;;;;;10.78;70.02;100678.13;5019648;28;46125;-55
2023/01/14 08:26:55;;;;;;;;;1.75;1.25;;;;;10.81;70.23;100676.31;5020310;28;45264;-54
2023/01/14 08:29:21;;;;;;;;;2.75;1.25;;;;;10.83;69.90;100647.38;5020645;28;45209;-54
2023/01/14 08:31:54;;;;;;;;;3.50;1.75;;;;;10.81;70.29;100670.22;5020658;28;45356;-54
2023/01/14 08:34:21;;;;;;;;;2.50;1.00;;;;;10.75;70.13;100642.25;5020581;28;46184;-54
2023/01/14 08:36:48;;;;;;;;;4.50;2.75;;;;;10.78;70.14;100659.72;5019277;28;45480;-54
2023/01/14 08:39:13;;;;;;;;;2.00;2.00;;;;;10.78;70.22;100654.47;5019346;28;45252;-59
2023/01/14 08:41:38;;;;;;;;;3.75;2.00;;;;;10.81;70.31;100651.81;5019752;28;45175;-53
2023/01/14 08:44:04;;;;;;;;;1.25;1.25;;;;;10.78;70.15;100639.59;5020424;28;45944;-54
2023/01/14 08:46:29;;;;;;;;;2.25;1.25;;;;;10.84;69.93;100633.34;5020598;28;45223;-55
2023/01/14 08:48:54;;;;;;;;;4.25;1.50;;;;;10.82;70.20;100646.53;5019377;28;45419;-54
2023/01/14 08:51:20;;;;;;;;;7.75;3.75;;;;;10.76;70.59;100649.25;5020223;28;45459;-57
2023/01/14 08:53:46;;;;;;;;;5.00;5.00;;;;;10.82;70.61;100656.19;5020290;28;45387;-55
2023/01/14 08:56:15;;;;;;;;;4.50;3.00;;;;;10.81;70.85;100652.66;5019898;28;45288;-55
2023/01/14 08:58:41;;;;;;;;;3.25;2.00;;;;;10.78;70.25;100626.44;5020687;28;45218;-54
2023/01/14 09:01:07;;;;;;;;;3.50;2.00;;;;;10.86;70.85;100648.19;5020150;28;45324;-55
2023/01/14 09:03:35;;;;;;;;;6.25;2.50;;;;;10.91;70.73;100642.88;5020132;28;46387;-55
2023/01/14 09:06:03;;;;;;;;;4.75;3.75;;;;;10.88;71.12;100633.28;5020093;28;45365;-54
2023/01/14 09:19:30;;;;;;;;;5.25;2.00;;;;;10.94;70.93;100616.50;5019926;28;45257;-55
2023/01/14 09:21:56;;;;;;;;;2.75;1.50;;;;;10.99;71.26;100619.06;5019902;28;45301;-54
2023/01/14 09:24:21;;;;;;;;;4.50;4.50;;;;;11.04;71.20;100607.59;5019683;28;46368;-55
2023/01/14 09:26:47;;;;;;;;;5.75;4.00;;;;;10.99;70.78;100601.56;5018485;28;45222;-55
2023/01/14 09:29:12;;;;;;;;;4.00;2.75;;;;;11.01;71.31;100578.69;5019728;28;45194;-56
2023/01/14 09:31:37;;;;;;;;;3.50;1.50;;;;;11.04;70.82;100577.78;5019755;28;45235;-55
2023/01/14 09:34:03;;;;;;;;;1.00;1.00;;;;;11.11;71.38;100595.19;5019483;28;45499;-56
2023/01/14 09:36:29;;;;;;;;;3.25;1.25;;;;;11.09;71.19;100599.59;5019384;28;45163;-56
2023/01/14 09:38:55;;;;;;;;;1.00;1.00;;;;;11.06;71.61;100592.63;5020058;28;45489;-56
2023/01/14 09:41:30;;;;;;;;;4.25;1.50;;;;;11.02;71.52;100575.19;5019139;28;45590;-56
2023/01/14 09:43:56;;;;;;;;;4.75;2.00;;;;;11.08;72.00;100591.75;5019797;28;45455;-55
2023/01/14 09:46:25;;;;;;;;;1.00;1.00;;;;;11.10;71.97;100590.81;5019052;28;45335;-56
2023/01/14 09:48:54;;;;;;;;;2.00;2.00;;;;;11.08;71.33;100581.22;5019637;28;45268;-56
2023/01/14 09:51:47;;;;;;;;;5.00;4.00;;;;;11.05;71.94;100583.00;5018097;28;45551;-56
2023/01/14 09:54:27;;;;;;;;;3.75;2.75;;;;;11.13;72.19;100571.47;5019306;28;45229;-56
2023/01/14 09:57:12;;;;;;;;;5.75;3.75;;;;;11.11;72.05;100575.91;5019136;28;45336;-55
2023/01/14 09:59:57;;;;;;;;;3.00;2.50;;;;;11.18;72.01;100572.25;5019427;28;45392;-56
2023/01/14 10:02:39;;;;;;;;;2.75;2.00;;;;;11.13;71.78;100555.69;5019279;28;45481;-54
2023/01/14 10:05:28;;;;;;;;;3.00;3.00;;;;;11.23;71.92;100575.66;5019314;28;46390;-55
2023/01/14 10:07:56;;;;;;;;;2.00;2.00;;;;;11.26;72.24;100561.56;5019057;28;45393;-54
2023/01/14 10:10:29;;;;;;;;;3.50;2.25;;;;;11.25;72.57;100559.88;5019083;28;45230;-54
2023/01/14 10:12:57;;;;;;;;;2.75;2.75;;;;;11.26;72.04;100554.56;5019158;28;45313;-54
2023/01/14 10:15:37;;;;;;;;;1.75;1.75;;;;;11.25;71.89;100558.09;5018979;28;46132;-55
2023/01/14 10:18:11;;;;;;;;;3.25;1.00;;;;;11.37;72.34;100565.75;5017792;28;45499;-55
2023/01/14 10:20:50;;;;;;;;;1.50;0.00;;;;;11.45;72.26;100575.25;5019361;28;45470;-55
2023/01/14 10:23:20;;;;;;;;;1.00;1.00;;;;;11.40;72.18;100543.75;5019135;28;45187;-56
2023/01/14 10:25:51;;;;;;;;;2.00;1.00;;;;;11.49;72.47;100540.06;5018624;28;45452;-56
2023/01/14 10:28:22;;;;;;;;;1.50;1.50;;;;;11.57;72.43;100547.81;5018953;28;45241;-56
2023/01/14 10:30:49;;;;;;;;;3.25;2.00;;;;;11.52;72.09;100534.72;5018300;28;45313;-54
2023/01/14 10:33:16;;;;;;;;;1.00;1.00;;;;;11.51;72.25;100509.34;5019006;28;45372;-55
2023/01/14 10:35:45;;;;;;;;;3.00;2.00;;;;;11.54;72.20;100551.38;5018753;28;46211;-54
2023/01/14 10:38:17;;;;;;;;;3.25;3.00;;;;;11.59;72.04;100515.28;5020631;28;45337;-55
2023/01/14 10:40:43;;;;;;;;;5.75;2.25;;;;;11.61;72.32;100516.13;5022199;28;45470;-56
2023/01/14 10:43:19;;;;;;;;;3.50;2.75;;;;;11.66;72.29;100522.16;5021779;28;45462;-56
2023/01/14 10:45:45;;;;;;;;;4.00;2.00;;;;;11.72;72.30;100523.78;5022277;28;46989;-56
2023/01/14 10:48:17;;;;;;;;;3.50;0.75;;;;;11.70;72.74;100526.44;5021987;28;45440;-56
2023/01/14 10:50:43;;;;;;;;;1.25;0.75;;;;;11.72;72.49;100515.88;5022299;28;45245;-55
2023/01/14 10:53:17;;;;;;;;;3.50;1.50;;;;;11.78;72.55;100528.03;5021860;28;45254;-55
2023/01/14 10:55:48;;;;;;;;;3.25;3.00;;;;;11.69;72.21;100514.19;5021721;28;46094;-56
2023/01/14 10:58:19;;;;;;;;;2.00;2.00;;;;;11.74;72.51;100511.44;5021713;28;45366;-55
2023/01/14 11:00:50;;;;;;;;;4.50;3.50;;;;;11.76;72.26;100487.72;5022031;28;45266;-61
2023/01/14 11:03:24;;;;;;;;;3.75;3.75;;;;;11.69;71.75;100473.84;5022202;28;45477;-55
2023/01/14 11:06:03;;;;;;;;;1.00;1.00;;;;;11.74;72.81;100482.50;5021802;28;47183;-55
2023/01/14 11:08:34;;;;;;;;;3.25;3.00;;;;;11.74;71.88;100465.84;5021956;28;45880;-55
2023/01/14 11:11:07;;;;;;;;;6.00;3.00;;;;;11.73;71.96;100491.28;5020159;28;45377;-55
2023/01/14 11:13:41;;;;;;;;;5.00;3.75;;;;;11.75;72.49;100485.97;5021803;28;45397;-55
2023/01/14 11:16:29;;;;;;;;;2.75;2.00;;;;;11.73;72.66;100472.84;5021523;28;47559;-55
2023/01/14 11:19:05;;;;;;;;;4.50;2.25;;;;;11.78;72.87;100528.91;5021615;28;45408;-54
2023/01/14 11:21:34;;;;;;;;;4.75;4.00;;;;;11.76;72.51;100458.75;5022016;28;45272;-56
2023/01/14 11:24:07;;;;;;;;;4.50;4.00;;;;;11.77;72.58;100448.19;5021452;28;45317;-54
2023/01/14 11:26:38;;;;;;;;;2.25;2.25;;;;;11.78;72.63;100443.81;5021290;28;47112;-56
2023/01/14 11:29:03;;;;;;;;;6.75;5.00;;;;;11.83;72.30;100431.38;5021216;28;45473;-56
2023/01/14 11:31:38;;;;;;;;;7.50;4.50;;;;;11.80;72.43;100429.69;5021830;28;45385;-56
2023/01/14 11:34:05;;;;;;;;;6.00;3.75;;;;;11.77;72.69;100413.97;5021606;28;45446;-55
2023/01/14 11:36:33;;;;;;;;;2.25;1.50;;;;;11.80;72.50;100410.41;5021410;28;46297;-55
2023/01/14 11:39:00;;;;;;;;;3.75;2.00;;;;;11.80;72.68;100405.16;5021445;28;45312;-55
2023/01/14 11:41:32;;;;;;;;;2.00;2.00;;;;;11.85;72.39;100393.59;5019626;28;45363;-56
2023/01/14 11:44:09;;;;;;;;;5.50;3.75;;;;;11.79;71.86;100372.69;5021446;28;45236;-55
2023/01/14 11:46:34;;;;;;;;;5.75;5.00;;;;;11.81;72.33;100391.06;5021108;28;45319;-54
2023/01/14 11:49:21;;;;;;;;;4.50;4.00;;;;;11.83;72.91;100365.56;5020820;28;45230;-55
2023/01/14 11:51:58;;;;;;;;;2.00;2.00;;;;;11.86;72.43;100345.31;5019881;28;45412;-56
2023/01/14 11:54:29;;;;;;;;;3.25;2.50;;;;;11.90;72.52;100353.09;5021122;28;45306;-56
2023/01/14 11:56:54;;;;;;;;;5.50;3.75;;;;;11.94;72.29;100365.31;5020955;28;45347;-57
2023/01/14 11:59:31;;;;;;;;;5.75;3.75;;;;;11.92;72.37;100343.41;5021031;28;45380;-56
2023/01/14 12:02:25;;;;;;;;;4.75;3.75;;;;;11.95;72.87;100351.22;5021459;28;45402;-56
2023/01/14 12:05:05;;;;;;;;;3.25;2.75;;;;;11.83;72.48;100319.03;5020764;28;45555;-56
2023/01/14 12:07:43;;;;;;;;;3.00;3.00;;;;;11.87;72.34;100335.63;5020943;28;45380;-56
2023/01/14 12:10:26;;;;;;;;;4.00;3.75;;;;;11.92;72.65;100315.28;5020765;28;45284;-56